createdAt,value
2017-10-17T00:00:34.010Z,15.39
2017-10-17T00:01:33.969Z,15.41
2017-10-17T00:02:34.001Z,15.36
2017-10-17T00:03:33.983Z,15.44
2017-10-17T00:04:33.649Z,15.34
2017-10-17T00:05:33.952Z,15.36
2017-10-17T00:06:33.614Z,15.39
2017-10-17T00:07:33.947Z,15.35
2017-10-17T00:08:33.964Z,15.34
2017-10-17T00:09:33.953Z,15.44
2017-10-17T00:10:33.590Z,15.38
2017-10-17T00:11:33.594Z,15.5
2017-10-17T00:12:33.916Z,15.41
2017-10-17T00:13:33.595Z,15.36
2017-10-17T00:14:33.897Z,15.47
2017-10-17T00:15:33.247Z,15.47
2017-10-17T00:16:33.879Z,15.47
2017-10-17T00:17:33.910Z,15.5
2017-10-17T00:18:33.870Z,15.44
2017-10-17T00:19:33.879Z,15.41
2017-10-17T00:20:33.859Z,15.49
2017-10-17T00:21:33.884Z,15.41
2017-10-17T00:22:33.876Z,15.47
2017-10-17T00:23:33.857Z,15.51
2017-10-17T00:24:33.499Z,15.53
2017-10-17T00:25:33.527Z,15.47
2017-10-17T00:26:33.821Z,15.5
2017-10-17T00:27:33.497Z,15.43
2017-10-17T00:28:33.811Z,15.44
2017-10-17T00:29:33.838Z,15.53
2017-10-17T00:30:33.471Z,15.51
2017-10-17T00:31:33.826Z,15.51
2017-10-17T00:32:33.788Z,15.51
2017-10-17T00:33:33.816Z,15.54
2017-10-17T00:34:33.776Z,15.54
2017-10-17T00:35:33.791Z,15.56
2017-10-17T00:36:33.763Z,15.59
2017-10-17T00:37:33.789Z,15.56
2017-10-17T00:38:33.792Z,15.54
2017-10-17T00:39:33.430Z,15.6
2017-10-17T00:40:33.744Z,15.59
2017-10-17T00:41:33.740Z,15.53
2017-10-17T00:42:33.754Z,15.57
2017-10-17T00:43:33.739Z,15.5
2017-10-17T00:44:33.754Z,15.47
2017-10-17T00:45:33.717Z,15.51
2017-10-17T00:46:33.734Z,15.51
2017-10-17T00:47:33.699Z,15.53
2017-10-17T00:48:33.723Z,15.53
2017-10-17T00:49:33.690Z,15.57
2017-10-17T00:50:33.710Z,15.51
2017-10-17T00:51:33.365Z,15.49
2017-10-17T00:52:33.675Z,15.56
2017-10-17T00:53:33.695Z,15.56
2017-10-17T00:54:33.691Z,15.5
2017-10-17T00:55:33.676Z,15.54
2017-10-17T00:56:33.649Z,15.6
2017-10-17T00:57:33.308Z,15.5
2017-10-17T00:58:33.661Z,15.54
2017-10-17T00:59:33.313Z,15.56
2017-10-17T01:00:33.652Z,15.6
2017-10-17T01:01:33.636Z,15.56
2017-10-17T01:02:33.644Z,15.51
2017-10-17T01:03:33.611Z,15.54
2017-10-17T01:04:33.631Z,15.53
2017-10-17T01:05:33.590Z,15.5
2017-10-17T01:06:33.622Z,15.51
2017-10-17T01:07:33.597Z,15.51
2017-10-17T01:08:33.623Z,15.54
2017-10-17T01:09:33.244Z,15.43
2017-10-17T01:10:33.572Z,15.38
2017-10-17T01:11:33.576Z,15.5
2017-10-17T01:12:33.584Z,15.41
2017-10-17T01:13:33.576Z,15.46
2017-10-17T01:14:33.548Z,15.43
2017-10-17T01:15:33.212Z,15.5
2017-10-17T01:16:33.559Z,15.41
2017-10-17T01:17:33.535Z,15.44
2017-10-17T01:18:33.544Z,15.39
2017-10-17T01:19:33.513Z,15.39
2017-10-17T01:20:33.202Z,15.44
2017-10-17T01:21:33.503Z,15.47
2017-10-17T01:22:33.532Z,15.41
2017-10-17T01:23:33.178Z,15.41
2017-10-17T01:24:33.513Z,15.39
2017-10-17T01:25:33.149Z,15.44
2017-10-17T01:26:33.477Z,15.47
2017-10-17T01:27:33.496Z,15.41
2017-10-17T01:28:33.499Z,15.34
2017-10-17T01:29:33.484Z,15.47
2017-10-17T01:30:33.118Z,15.32
2017-10-17T01:31:33.118Z,15.35
2017-10-17T01:32:33.438Z,15.32
2017-10-17T01:33:33.458Z,15.28
2017-10-17T01:34:33.429Z,15.34
2017-10-17T01:35:33.457Z,15.36
2017-10-17T01:36:33.411Z,15.36
2017-10-17T01:37:33.440Z,15.36
2017-10-17T01:38:33.068Z,15.29
2017-10-17T01:39:33.081Z,15.31
2017-10-17T01:40:33.392Z,15.27
2017-10-17T01:41:33.414Z,15.28
2017-10-17T01:42:33.050Z,15.21
2017-10-17T01:43:33.046Z,15.21
2017-10-17T01:44:33.397Z,15.23
2017-10-17T01:45:33.393Z,15.23
2017-10-17T01:46:33.359Z,15.2
2017-10-17T01:47:33.612Z,15.17
2017-10-17T01:48:33.010Z,15.28
2017-10-17T01:49:33.028Z,15.17
2017-10-17T01:50:33.332Z,15.03
2017-10-17T01:51:33.355Z,15.14
2017-10-17T01:52:32.988Z,15.13
2017-10-17T01:53:33.006Z,15.06
2017-10-17T01:54:33.307Z,15.07
2017-10-17T01:55:32.982Z,15.06
2017-10-17T01:56:33.293Z,15.02
2017-10-17T01:57:32.983Z,15.02
2017-10-17T01:58:32.971Z,14.92
2017-10-17T01:59:33.295Z,15.01
2017-10-17T02:00:32.946Z,14.99
2017-10-17T02:01:33.269Z,14.94
2017-10-17T02:02:33.285Z,14.94
2017-10-17T02:03:32.930Z,14.94
2017-10-17T02:04:33.278Z,14.91
2017-10-17T02:05:32.906Z,14.81
2017-10-17T02:06:33.258Z,14.86
2017-10-17T02:07:33.241Z,14.78
2017-10-17T02:08:33.226Z,14.81
2017-10-17T02:09:33.241Z,14.84
2017-10-17T02:10:33.221Z,14.75
2017-10-17T02:11:33.218Z,14.77
2017-10-17T02:12:33.192Z,14.83
2017-10-17T02:13:33.259Z,14.81
2017-10-17T02:14:32.871Z,14.78
2017-10-17T02:15:33.195Z,14.83
2017-10-17T02:16:32.839Z,14.81
2017-10-17T02:17:33.161Z,14.83
2017-10-17T02:18:33.443Z,14.78
2017-10-17T02:19:33.172Z,14.69
2017-10-17T02:20:33.146Z,14.65
2017-10-17T02:21:32.833Z,14.75
2017-10-17T02:22:33.138Z,14.7
2017-10-17T02:23:33.157Z,14.68
2017-10-17T02:24:33.118Z,14.68
2017-10-17T02:25:33.148Z,14.61
2017-10-17T02:26:32.775Z,14.69
2017-10-17T02:27:33.115Z,14.46
2017-10-17T02:28:32.762Z,14.61
2017-10-17T02:29:33.125Z,14.52
2017-10-17T02:30:33.111Z,14.57
2017-10-17T02:31:33.099Z,14.57
2017-10-17T02:32:33.068Z,14.51
2017-10-17T02:33:33.102Z,14.5
2017-10-17T02:34:33.163Z,14.51
2017-10-17T02:35:33.077Z,14.5
2017-10-17T02:36:33.048Z,14.47
2017-10-17T02:37:33.070Z,14.42
2017-10-17T02:38:33.036Z,14.35
2017-10-17T02:39:32.384Z,14.27
2017-10-17T02:40:32.703Z,14.37
2017-10-17T02:41:33.043Z,14.27
2017-10-17T02:42:32.672Z,14.25
2017-10-17T02:43:33.020Z,14.27
2017-10-17T02:44:32.662Z,14.24
2017-10-17T02:45:32.679Z,14.25
2017-10-17T02:46:33.004Z,14.22
2017-10-17T02:47:32.991Z,14.21
2017-10-17T02:48:32.968Z,14.18
2017-10-17T02:49:32.956Z,14.15
2017-10-17T02:50:32.993Z,14.1
2017-10-17T02:51:32.633Z,14.09
2017-10-17T02:52:32.974Z,14.12
2017-10-17T02:53:32.936Z,14.02
2017-10-17T02:54:32.959Z,14.09
2017-10-17T02:55:32.927Z,14.07
2017-10-17T02:56:32.944Z,14.07
2017-10-17T02:57:32.907Z,13.99
2017-10-17T02:58:32.928Z,13.88
2017-10-17T02:59:32.911Z,13.88
2017-10-17T03:00:32.554Z,13.88
2017-10-17T03:01:32.914Z,13.88
2017-10-17T03:02:32.915Z,13.89
2017-10-17T03:03:32.882Z,13.82
2017-10-17T03:04:32.863Z,13.89
2017-10-17T03:05:32.850Z,13.84
2017-10-17T03:06:32.538Z,13.88
2017-10-17T03:07:32.859Z,13.85
2017-10-17T03:08:32.863Z,13.85
2017-10-17T03:09:32.496Z,13.81
2017-10-17T03:10:32.511Z,13.75
2017-10-17T03:11:32.824Z,13.84
2017-10-17T03:12:32.839Z,13.71
2017-10-17T03:13:32.467Z,13.7
2017-10-17T03:14:32.825Z,13.77
2017-10-17T03:15:32.804Z,13.73
2017-10-17T03:16:32.809Z,13.69
2017-10-17T03:17:32.772Z,13.69
2017-10-17T03:18:32.776Z,13.71
2017-10-17T03:19:32.785Z,13.64
2017-10-17T03:20:32.446Z,13.63
2017-10-17T03:21:32.781Z,13.67
2017-10-17T03:22:32.743Z,13.66
2017-10-17T03:23:32.745Z,13.62
2017-10-17T03:24:32.758Z,13.54
2017-10-17T03:25:32.744Z,13.57
2017-10-17T03:26:32.736Z,13.59
2017-10-17T03:27:32.703Z,13.48
2017-10-17T03:28:32.733Z,13.51
2017-10-17T03:29:32.692Z,13.48
2017-10-17T03:30:32.721Z,13.51
2017-10-17T03:31:32.697Z,13.42
2017-10-17T03:32:32.710Z,13.45
2017-10-17T03:33:32.658Z,13.41
2017-10-17T03:34:32.332Z,13.42
2017-10-17T03:35:32.327Z,13.42
2017-10-17T03:36:32.673Z,13.42
2017-10-17T03:37:32.665Z,13.45
2017-10-17T03:38:32.637Z,13.44
2017-10-17T03:39:32.639Z,13.42
2017-10-17T03:40:32.615Z,13.39
2017-10-17T03:41:32.640Z,13.39
2017-10-17T03:42:32.606Z,13.29
2017-10-17T03:43:32.624Z,13.3
2017-10-17T03:44:31.920Z,13.23
2017-10-17T03:45:32.275Z,13.26
2017-10-17T03:46:32.570Z,13.2
2017-10-17T03:47:32.586Z,13.23
2017-10-17T03:48:32.555Z,13.28
2017-10-17T03:49:32.588Z,13.26
2017-10-17T03:50:32.545Z,13.25
2017-10-17T03:51:32.547Z,13.25
2017-10-17T03:52:32.811Z,13.17
2017-10-17T03:53:32.216Z,13.25
2017-10-17T03:54:32.517Z,13.25
2017-10-17T03:55:32.525Z,13.15
2017-10-17T03:56:32.502Z,13.17
2017-10-17T03:57:32.190Z,13.26
2017-10-17T03:58:32.492Z,13.26
2017-10-17T03:59:32.510Z,13.22
2017-10-17T04:00:32.479Z,13.3
2017-10-17T04:01:32.499Z,13.28
2017-10-17T04:02:32.468Z,13.25
2017-10-17T04:03:32.470Z,13.26
2017-10-17T04:04:32.479Z,13.28
2017-10-17T04:05:32.435Z,13.23
2017-10-17T04:06:32.439Z,13.22
2017-10-17T04:07:32.439Z,13.26
2017-10-17T04:08:32.449Z,13.3
2017-10-17T04:09:32.439Z,13.25
2017-10-17T04:10:32.405Z,13.22
2017-10-17T04:11:32.405Z,13.17
2017-10-17T04:12:32.389Z,13.25
2017-10-17T04:13:32.071Z,13.28
2017-10-17T04:14:32.376Z,13.3
2017-10-17T04:15:32.375Z,13.22
2017-10-17T04:16:32.391Z,13.3
2017-10-17T04:17:32.350Z,13.32
2017-10-17T04:18:32.373Z,13.25
2017-10-17T04:19:32.348Z,13.26
2017-10-17T04:20:32.366Z,13.23
2017-10-17T04:21:32.320Z,13.26
2017-10-17T04:22:32.338Z,13.2
2017-10-17T04:23:32.238Z,13.28
2017-10-17T04:24:32.001Z,13.22
2017-10-17T04:25:32.329Z,13.29
2017-10-17T04:26:32.289Z,13.25
2017-10-17T04:27:32.299Z,13.28
2017-10-17T04:28:32.274Z,13.25
2017-10-17T04:29:32.302Z,13.2
2017-10-17T04:30:32.260Z,13.19
2017-10-17T04:31:31.952Z,13.12
2017-10-17T04:32:32.248Z,13.23
2017-10-17T04:33:32.269Z,13.12
2017-10-17T04:34:32.228Z,13.12
2017-10-17T04:35:31.573Z,13.14
2017-10-17T04:36:32.215Z,13.11
2017-10-17T04:37:31.902Z,13.1
2017-10-17T04:38:32.226Z,13.11
2017-10-17T04:39:32.222Z,13.1
2017-10-17T04:40:31.522Z,13.03
2017-10-17T04:41:31.872Z,13.11
2017-10-17T04:42:32.178Z,13.04
2017-10-17T04:43:32.179Z,13.05
2017-10-17T04:44:32.168Z,12.96
2017-10-17T04:45:32.187Z,13.01
2017-10-17T04:46:32.148Z,12.96
2017-10-17T04:47:32.193Z,13
2017-10-17T04:48:32.127Z,13
2017-10-17T04:49:31.476Z,12.95
2017-10-17T04:50:32.113Z,12.78
2017-10-17T04:51:32.119Z,12.82
2017-10-17T04:52:32.097Z,12.85
2017-10-17T04:53:32.126Z,12.77
2017-10-17T04:54:32.360Z,12.83
2017-10-17T04:55:31.764Z,12.74
2017-10-17T04:56:32.076Z,12.72
2017-10-17T04:57:32.068Z,12.75
2017-10-17T04:58:31.408Z,12.77
2017-10-17T04:59:32.065Z,12.74
2017-10-17T05:00:32.072Z,12.78
2017-10-17T05:01:31.698Z,12.75
2017-10-17T05:02:32.053Z,12.71
2017-10-17T05:03:32.013Z,12.71
2017-10-17T05:04:31.706Z,12.68
2017-10-17T05:05:31.669Z,12.68
2017-10-17T05:06:32.021Z,12.7
2017-10-17T05:07:31.674Z,12.7
2017-10-17T05:08:31.980Z,12.71
2017-10-17T05:09:32.007Z,12.65
2017-10-17T05:10:31.992Z,12.68
2017-10-17T05:11:31.974Z,12.64
2017-10-17T05:12:31.950Z,12.7
2017-10-17T05:13:31.946Z,12.64
2017-10-17T05:14:31.963Z,12.6
2017-10-17T05:15:31.617Z,12.59
2017-10-17T05:16:31.954Z,12.59
2017-10-17T05:17:31.247Z,12.59
2017-10-17T05:18:31.603Z,12.53
2017-10-17T05:19:31.901Z,12.56
2017-10-17T05:20:31.925Z,12.56
2017-10-17T05:21:31.549Z,12.49
2017-10-17T05:22:31.911Z,12.54
2017-10-17T05:23:31.881Z,12.5
2017-10-17T05:24:31.891Z,12.52
2017-10-17T05:25:31.860Z,12.49
2017-10-17T05:26:31.842Z,12.49
2017-10-17T05:27:31.849Z,12.47
2017-10-17T05:28:31.860Z,12.47
2017-10-17T05:29:31.849Z,12.49
2017-10-17T05:30:31.824Z,12.46
2017-10-17T05:31:31.480Z,12.49
2017-10-17T05:32:31.832Z,12.47
2017-10-17T05:33:31.788Z,12.35
2017-10-17T05:34:31.808Z,12.46
2017-10-17T05:35:31.444Z,12.49
2017-10-17T05:36:31.809Z,12.39
2017-10-17T05:37:31.759Z,12.39
2017-10-17T05:38:31.789Z,12.45
2017-10-17T05:39:31.762Z,12.46
2017-10-17T05:40:31.780Z,12.39
2017-10-17T05:41:31.735Z,12.37
2017-10-17T05:42:31.723Z,12.39
2017-10-17T05:43:31.724Z,12.34
2017-10-17T05:44:31.740Z,12.37
2017-10-17T05:45:31.706Z,12.39
2017-10-17T05:46:31.718Z,12.34
2017-10-17T05:47:31.369Z,12.5
2017-10-17T05:48:31.706Z,12.45
2017-10-17T05:49:31.347Z,12.35
2017-10-17T05:50:31.703Z,12.39
2017-10-17T05:51:31.656Z,12.47
2017-10-17T05:52:31.337Z,12.38
2017-10-17T05:53:31.634Z,12.38
2017-10-17T05:54:31.330Z,12.38
2017-10-17T05:55:31.302Z,12.35
2017-10-17T05:56:31.651Z,12.39
2017-10-17T05:57:30.942Z,12.49
2017-10-17T05:58:31.294Z,12.46
2017-10-17T05:59:31.609Z,12.49
2017-10-17T06:00:31.585Z,12.42
2017-10-17T06:01:31.578Z,12.45
2017-10-17T06:02:31.261Z,12.45
2017-10-17T06:03:31.581Z,12.47
2017-10-17T06:04:31.594Z,12.49
2017-10-17T06:05:31.551Z,12.47
2017-10-17T06:06:31.567Z,12.56
2017-10-17T06:07:31.540Z,12.57
2017-10-17T06:08:31.226Z,12.54
2017-10-17T06:09:31.518Z,12.65
2017-10-17T06:10:31.540Z,12.65
2017-10-17T06:11:31.514Z,12.72
2017-10-17T06:12:31.521Z,12.71
2017-10-17T06:13:31.484Z,12.75
2017-10-17T06:14:31.490Z,12.74
2017-10-17T06:15:31.486Z,12.85
2017-10-17T06:16:31.502Z,12.95
2017-10-17T06:17:31.487Z,13.01
2017-10-17T06:18:31.452Z,13
2017-10-17T06:19:31.461Z,13.12
2017-10-17T06:20:31.437Z,13.08
2017-10-17T06:21:31.124Z,13.28
2017-10-17T06:22:31.429Z,13.25
2017-10-17T06:23:31.431Z,13.41
2017-10-17T06:24:31.100Z,13.42
2017-10-17T06:25:31.068Z,13.52
2017-10-17T06:26:30.752Z,13.62
2017-10-17T06:27:31.414Z,13.66
2017-10-17T06:28:31.374Z,13.73
2017-10-17T06:29:31.379Z,13.84
2017-10-17T06:30:31.374Z,13.89
2017-10-17T06:31:31.380Z,14.1
2017-10-17T06:32:31.386Z,14.18
2017-10-17T06:33:31.388Z,14.2
2017-10-17T06:34:31.347Z,14.27
2017-10-17T06:35:31.346Z,14.35
2017-10-17T06:36:31.328Z,14.43
2017-10-17T06:37:30.681Z,14.61
2017-10-17T06:38:31.335Z,14.6
2017-10-17T06:39:31.012Z,14.72
2017-10-17T06:40:31.309Z,14.83
2017-10-17T06:41:31.333Z,14.92
2017-10-17T06:42:31.298Z,15.06
2017-10-17T06:43:30.974Z,15.16
2017-10-17T06:44:30.956Z,15.19
2017-10-17T06:45:31.311Z,15.36
2017-10-17T06:46:30.961Z,15.43
2017-10-17T06:47:30.952Z,15.54
2017-10-17T06:48:31.264Z,15.68
2017-10-17T06:49:31.292Z,15.76
2017-10-17T06:50:30.923Z,15.93
2017-10-17T06:51:31.256Z,16.04
2017-10-17T06:52:30.916Z,16.09
2017-10-17T06:53:30.942Z,16.25
2017-10-17T06:54:31.238Z,16.28
2017-10-17T06:55:31.261Z,16.49
2017-10-17T06:56:31.222Z,16.56
2017-10-17T06:57:31.257Z,16.7
2017-10-17T06:58:30.883Z,16.76
2017-10-17T06:59:31.480Z,16.85
2017-10-17T07:00:31.206Z,16.96
2017-10-17T07:01:31.237Z,17.06
2017-10-17T07:02:30.888Z,17.19
2017-10-17T07:03:31.214Z,17.21
2017-10-17T07:04:30.863Z,17.3
2017-10-17T07:05:31.189Z,17.23
2017-10-17T07:06:31.213Z,17.43
2017-10-17T07:07:31.196Z,17.37
2017-10-17T07:08:31.213Z,17.38
2017-10-17T07:09:31.183Z,17.54
2017-10-17T07:10:31.199Z,17.58
2017-10-17T07:11:31.168Z,17.63
2017-10-17T07:12:30.861Z,17.7
2017-10-17T07:13:31.168Z,17.81
2017-10-17T07:14:31.186Z,17.84
2017-10-17T07:15:31.178Z,17.89
2017-10-17T07:16:31.148Z,17.87
2017-10-17T07:17:31.185Z,18.03
2017-10-17T07:18:31.178Z,18.14
2017-10-17T07:19:30.828Z,18.11
2017-10-17T07:20:31.167Z,18.08
2017-10-17T07:21:31.138Z,18.21
2017-10-17T07:22:31.169Z,18.27
2017-10-17T07:23:31.155Z,18.25
2017-10-17T07:24:31.166Z,18.29
2017-10-17T07:25:31.127Z,18.26
2017-10-17T07:26:31.157Z,18.27
2017-10-17T07:27:31.120Z,18.27
2017-10-17T07:28:30.820Z,18.27
2017-10-17T07:29:30.790Z,18.33
2017-10-17T07:30:31.396Z,18.35
2017-10-17T07:31:31.139Z,18.3
2017-10-17T07:32:30.809Z,18.33
2017-10-17T07:33:30.777Z,18.37
2017-10-17T07:34:31.111Z,18.32
2017-10-17T07:35:30.791Z,18.3
2017-10-17T07:36:31.130Z,18.33
2017-10-17T07:37:31.136Z,18.29
2017-10-17T07:38:31.101Z,18.29
2017-10-17T07:39:31.109Z,18.32
2017-10-17T07:40:31.122Z,18.36
2017-10-17T07:41:30.757Z,18.32
2017-10-17T07:42:31.111Z,18.33
2017-10-17T07:43:31.081Z,18.32
2017-10-17T07:44:31.117Z,18.27
2017-10-17T07:45:31.079Z,18.27
2017-10-17T07:46:30.783Z,18.26
2017-10-17T07:47:31.086Z,18.18
2017-10-17T07:48:31.121Z,18.23
2017-10-17T07:49:31.067Z,18.23
2017-10-17T07:50:31.064Z,18.25
2017-10-17T07:51:31.072Z,18.2
2017-10-17T07:52:30.758Z,18.25
2017-10-17T07:53:31.082Z,18.25
2017-10-17T07:54:30.395Z,18.27
2017-10-17T07:55:30.724Z,18.32
2017-10-17T07:56:31.050Z,18.2
2017-10-17T07:57:30.732Z,18.2
2017-10-17T07:58:31.056Z,18.26
2017-10-17T07:59:31.070Z,18.32
2017-10-17T08:00:31.062Z,18.25
2017-10-17T08:01:30.974Z,18.32
2017-10-17T08:02:31.025Z,18.26
2017-10-17T08:03:30.709Z,18.3
2017-10-17T08:04:31.016Z,18.37
2017-10-17T08:05:31.048Z,18.32
2017-10-17T08:06:31.014Z,18.32
2017-10-17T08:07:30.350Z,18.44
2017-10-17T08:08:31.036Z,18.39
2017-10-17T08:09:31.035Z,18.44
2017-10-17T08:10:31.026Z,18.54
2017-10-17T08:11:31.004Z,18.41
2017-10-17T08:12:30.990Z,18.54
2017-10-17T08:13:31.023Z,18.36
2017-10-17T08:14:30.652Z,18.37
2017-10-17T08:15:31.013Z,18.5
2017-10-17T08:16:30.973Z,18.45
2017-10-17T08:17:31.212Z,18.55
2017-10-17T08:18:30.635Z,18.57
2017-10-17T08:19:30.976Z,18.48
2017-10-17T08:20:30.626Z,18.58
2017-10-17T08:21:30.662Z,18.55
2017-10-17T08:22:30.645Z,18.47
2017-10-17T08:23:30.967Z,18.48
2017-10-17T08:24:30.282Z,18.55
2017-10-17T08:25:30.940Z,18.52
2017-10-17T08:26:30.967Z,18.52
2017-10-17T08:27:30.971Z,18.55
2017-10-17T08:28:30.630Z,18.57
2017-10-17T08:29:30.600Z,18.57
2017-10-17T08:30:30.614Z,18.66
2017-10-17T08:31:30.948Z,18.75
2017-10-17T08:32:31.170Z,18.73
2017-10-17T08:33:30.954Z,18.8
2017-10-17T08:34:30.910Z,18.7
2017-10-17T08:35:30.931Z,18.8
2017-10-17T08:36:30.572Z,18.81
2017-10-17T08:37:30.597Z,18.8
2017-10-17T08:38:30.590Z,18.94
2017-10-17T08:39:30.913Z,18.92
2017-10-17T08:40:30.889Z,18.91
2017-10-17T08:41:30.551Z,18.91
2017-10-17T08:42:30.576Z,18.95
2017-10-17T08:43:30.904Z,18.94
2017-10-17T08:44:30.903Z,19.07
2017-10-17T08:45:30.871Z,19.06
2017-10-17T08:46:30.899Z,19.06
2017-10-17T08:47:30.872Z,19.11
2017-10-17T08:48:30.559Z,19.14
2017-10-17T08:49:30.862Z,19.13
2017-10-17T08:50:30.890Z,19.18
2017-10-17T08:51:30.871Z,19.16
2017-10-17T08:52:30.884Z,19.22
2017-10-17T08:53:31.061Z,19.22
2017-10-17T08:54:30.852Z,19.23
2017-10-17T08:55:30.851Z,19.31
2017-10-17T08:56:30.530Z,19.28
2017-10-17T08:57:30.503Z,19.31
2017-10-17T08:58:30.862Z,19.32
2017-10-17T08:59:30.853Z,19.39
2017-10-17T09:00:30.855Z,19.47
2017-10-17T09:01:30.492Z,19.44
2017-10-17T09:02:30.870Z,19.59
2017-10-17T09:03:30.845Z,19.5
2017-10-17T09:04:30.841Z,19.66
2017-10-17T09:05:30.814Z,19.62
2017-10-17T09:06:30.853Z,19.76
2017-10-17T09:07:30.814Z,19.69
2017-10-17T09:08:30.831Z,19.73
2017-10-17T09:09:30.795Z,19.78
2017-10-17T09:10:30.849Z,19.77
2017-10-17T09:11:30.805Z,19.86
2017-10-17T09:12:30.786Z,19.86
2017-10-17T09:13:30.781Z,19.87
2017-10-17T09:14:30.814Z,19.91
2017-10-17T09:15:30.794Z,19.88
2017-10-17T09:16:30.821Z,19.96
2017-10-17T09:17:30.769Z,19.91
2017-10-17T09:18:30.794Z,19.94
2017-10-17T09:19:30.767Z,19.95
2017-10-17T09:20:30.801Z,20.02
2017-10-17T09:21:30.762Z,20.06
2017-10-17T09:22:30.450Z,20.03
2017-10-17T09:23:30.774Z,20.06
2017-10-17T09:24:30.752Z,20.21
2017-10-17T09:25:30.784Z,20.08
2017-10-17T09:26:30.778Z,20.17
2017-10-17T09:27:30.639Z,20.18
2017-10-17T09:28:30.750Z,20.26
2017-10-17T09:29:30.740Z,20.23
2017-10-17T09:30:30.968Z,20.28
2017-10-17T09:31:30.417Z,20.21
2017-10-17T09:32:30.763Z,20.33
2017-10-17T09:33:31.102Z,20.42
2017-10-17T09:34:30.754Z,20.33
2017-10-17T09:35:30.726Z,20.48
2017-10-17T09:36:30.417Z,20.43
2017-10-17T09:37:30.384Z,20.41
2017-10-17T09:38:30.412Z,20.41
2017-10-17T09:39:30.724Z,20.5
2017-10-17T09:40:30.741Z,20.52
2017-10-17T09:41:30.706Z,20.51
2017-10-17T09:42:30.710Z,20.55
2017-10-17T09:43:30.721Z,20.62
2017-10-17T09:44:30.732Z,20.61
2017-10-17T09:45:30.727Z,20.66
2017-10-17T09:46:30.700Z,20.66
2017-10-17T09:47:30.373Z,20.66
2017-10-17T09:48:30.724Z,20.76
2017-10-17T09:49:30.697Z,20.69
2017-10-17T09:50:30.715Z,20.76
2017-10-17T09:51:30.018Z,20.8
2017-10-17T09:52:30.708Z,20.84
2017-10-17T09:53:30.346Z,20.88
2017-10-17T09:54:30.369Z,20.85
2017-10-17T09:55:30.689Z,20.92
2017-10-17T09:56:30.710Z,20.89
2017-10-17T09:57:30.368Z,20.94
2017-10-17T09:58:30.889Z,20.99
2017-10-17T09:59:30.680Z,20.99
2017-10-17T10:00:30.692Z,20.94
2017-10-17T10:01:30.896Z,20.99
2017-10-17T10:02:30.865Z,20.92
2017-10-17T10:03:30.667Z,21.04
2017-10-17T10:04:30.858Z,21.12
2017-10-17T10:05:30.693Z,21.12
2017-10-17T10:06:30.436Z,21.14
2017-10-17T10:07:30.673Z,21.12
2017-10-17T10:08:30.641Z,21.14
2017-10-17T10:09:30.671Z,21.09
2017-10-17T10:10:30.640Z,21.12
2017-10-17T10:11:30.946Z,21.13
2017-10-17T10:12:30.305Z,21.17
2017-10-17T10:13:30.896Z,21.17
2017-10-17T10:14:30.631Z,21.14
2017-10-17T10:15:30.640Z,21.19
2017-10-17T10:16:30.958Z,21.31
2017-10-17T10:17:30.681Z,21.19
2017-10-17T10:18:30.293Z,21.32
2017-10-17T10:19:30.639Z,21.27
2017-10-17T10:20:30.627Z,21.25
2017-10-17T10:21:30.649Z,21.37
2017-10-17T10:22:30.615Z,21.4
2017-10-17T10:23:30.635Z,21.32
2017-10-17T10:24:30.614Z,21.35
2017-10-17T10:25:30.299Z,21.38
2017-10-17T10:26:30.611Z,21.37
2017-10-17T10:27:30.624Z,21.35
2017-10-17T10:28:30.598Z,21.4
2017-10-17T10:29:30.629Z,21.46
2017-10-17T10:30:30.625Z,21.47
2017-10-17T10:31:30.615Z,21.49
2017-10-17T10:32:30.256Z,21.52
2017-10-17T10:33:30.591Z,21.52
2017-10-17T10:34:30.278Z,21.49
2017-10-17T10:35:30.601Z,21.56
2017-10-17T10:36:30.621Z,21.54
2017-10-17T10:37:30.881Z,21.64
2017-10-17T10:38:30.610Z,21.61
2017-10-17T10:39:30.611Z,21.61
2017-10-17T10:40:30.571Z,21.54
2017-10-17T10:41:30.608Z,21.67
2017-10-17T10:42:30.573Z,21.62
2017-10-17T10:43:30.587Z,21.62
2017-10-17T10:44:30.576Z,21.62
2017-10-17T10:45:30.595Z,21.61
2017-10-17T10:46:30.253Z,21.65
2017-10-17T10:47:30.581Z,21.65
2017-10-17T10:48:30.562Z,21.64
2017-10-17T10:49:30.564Z,21.67
2017-10-17T10:50:30.250Z,21.72
2017-10-17T10:51:30.576Z,21.74
2017-10-17T10:52:30.554Z,21.75
2017-10-17T10:53:30.294Z,21.69
2017-10-17T10:54:29.888Z,21.72
2017-10-17T10:55:30.236Z,21.82
2017-10-17T10:56:30.542Z,21.77
2017-10-17T10:57:30.575Z,21.86
2017-10-17T10:58:30.840Z,21.72
2017-10-17T10:59:30.555Z,21.84
2017-10-17T11:00:30.534Z,21.86
2017-10-17T11:01:30.568Z,21.75
2017-10-17T11:02:30.560Z,21.86
2017-10-17T11:03:30.557Z,21.84
2017-10-17T11:04:30.536Z,21.9
2017-10-17T11:05:30.222Z,21.9
2017-10-17T11:06:30.537Z,21.82
2017-10-17T11:07:30.537Z,21.84
2017-10-17T11:08:30.781Z,21.82
2017-10-17T11:09:30.552Z,21.91
2017-10-17T11:10:30.523Z,21.83
2017-10-17T11:11:30.550Z,21.82
2017-10-17T11:12:30.519Z,21.82
2017-10-17T11:13:30.544Z,21.8
2017-10-17T11:14:30.514Z,21.92
2017-10-17T11:15:30.541Z,21.77
2017-10-17T11:16:30.176Z,21.82
2017-10-17T11:17:30.539Z,21.86
2017-10-17T11:18:30.538Z,21.82
2017-10-17T11:19:30.189Z,21.79
2017-10-17T11:20:30.496Z,21.79
2017-10-17T11:21:30.497Z,21.86
2017-10-17T11:22:30.189Z,21.88
2017-10-17T11:23:30.190Z,21.91
2017-10-17T11:24:30.539Z,21.94
2017-10-17T11:25:30.494Z,21.92
2017-10-17T11:26:30.521Z,21.9
2017-10-17T11:27:30.489Z,21.88
2017-10-17T11:28:30.518Z,21.96
2017-10-17T11:29:30.156Z,21.98
2017-10-17T11:30:30.179Z,21.92
2017-10-17T11:31:30.520Z,21.92
2017-10-17T11:32:30.502Z,21.96
2017-10-17T11:33:30.506Z,21.94
2017-10-17T11:34:30.507Z,21.96
2017-10-17T11:35:29.822Z,21.96
2017-10-17T11:36:30.140Z,21.96
2017-10-17T11:37:30.469Z,21.98
2017-10-17T11:38:30.496Z,22.02
2017-10-17T11:39:30.490Z,21.99
2017-10-17T11:40:30.505Z,22.07
2017-10-17T11:41:30.459Z,21.96
2017-10-17T11:42:30.503Z,22.05
2017-10-17T11:43:30.461Z,22.05
2017-10-17T11:44:30.501Z,22.03
2017-10-17T11:45:30.457Z,22.03
2017-10-17T11:46:30.488Z,22.07
2017-10-17T11:47:30.480Z,21.99
2017-10-17T11:48:30.150Z,21.99
2017-10-17T11:49:30.462Z,22.03
2017-10-17T11:50:30.473Z,22.02
2017-10-17T11:51:30.122Z,22
2017-10-17T11:52:30.481Z,22.02
2017-10-17T11:53:30.474Z,22.1
2017-10-17T11:54:30.452Z,22.06
2017-10-17T11:55:30.453Z,22.07
2017-10-17T11:56:30.471Z,22.02
2017-10-17T11:57:30.443Z,22.06
2017-10-17T11:58:30.464Z,22.05
2017-10-17T11:59:30.301Z,22.07
2017-10-17T12:00:33.640Z,22.09
2017-10-17T12:01:30.633Z,22.1
2017-10-17T12:02:30.660Z,22.12
2017-10-17T12:03:30.860Z,22.07
2017-10-17T12:04:30.853Z,22.06
2017-10-17T12:05:30.662Z,22.1
2017-10-17T12:06:30.423Z,22.2
2017-10-17T12:07:30.439Z,22.18
2017-10-17T12:08:30.119Z,22.2
2017-10-17T12:09:30.467Z,22.24
2017-10-17T12:10:30.423Z,22.2
2017-10-17T12:11:30.342Z,22.21
2017-10-17T12:12:30.082Z,22.12
2017-10-17T12:13:30.442Z,22.09
2017-10-17T12:14:30.415Z,22.14
2017-10-17T12:15:30.443Z,22.18
2017-10-17T12:16:30.407Z,22.15
2017-10-17T12:17:30.439Z,22.21
2017-10-17T12:18:30.405Z,22.18
2017-10-17T12:19:30.648Z,22.21
2017-10-17T12:20:30.400Z,22.18
2017-10-17T12:21:30.434Z,22.18
2017-10-17T12:22:30.401Z,22.25
2017-10-17T12:23:30.072Z,22.18
2017-10-17T12:24:30.088Z,22.27
2017-10-17T12:25:30.091Z,22.21
2017-10-17T12:26:30.063Z,22.3
2017-10-17T12:27:30.403Z,22.24
2017-10-17T12:28:30.403Z,22.3
2017-10-17T12:29:30.420Z,22.24
2017-10-17T12:30:30.395Z,22.22
2017-10-17T12:31:30.421Z,22.24
2017-10-17T12:32:30.382Z,22.22
2017-10-17T12:33:30.418Z,22.24
2017-10-17T12:34:30.387Z,22.2
2017-10-17T12:35:30.055Z,22.28
2017-10-17T12:36:30.408Z,22.25
2017-10-17T12:37:30.373Z,22.21
2017-10-17T12:38:30.376Z,22.22
2017-10-17T12:39:30.387Z,22.35
2017-10-17T12:40:30.403Z,22.21
2017-10-17T12:41:30.401Z,22.31
2017-10-17T12:42:30.372Z,22.33
2017-10-17T12:43:30.052Z,22.36
2017-10-17T12:44:30.378Z,22.3
2017-10-17T12:45:30.440Z,22.33
2017-10-17T12:46:30.365Z,22.37
2017-10-17T12:47:30.038Z,22.33
2017-10-17T12:48:30.394Z,22.27
2017-10-17T12:49:30.361Z,22.33
2017-10-17T12:50:30.388Z,22.39
2017-10-17T12:51:30.373Z,22.31
2017-10-17T12:52:30.387Z,22.37
2017-10-17T12:53:30.355Z,22.37
2017-10-17T12:54:30.361Z,22.31
2017-10-17T12:55:30.363Z,22.37